sensor_id;sensor_type;location;lat;lon;timestamp;P1;durP1;ratioP1;P2;durP2;ratioP2
46040;SDS011;31779;49.124;19.190;2022-11-27T00:01:31;47.05;;;31.33;;
46040;SDS011;31779;49.124;19.190;2022-11-27T00:04:01;46.13;;;33.35;;
46040;SDS011;31779;49.124;19.190;2022-11-27T00:06:29;39.20;;;28.10;;
46040;SDS011;31779;49.124;19.190;2022-11-27T00:08:58;41.72;;;27.70;;
46040;SDS011;31779;49.124;19.190;2022-11-27T00:11:28;34.90;;;22.50;;
46040;SDS011;31779;49.124;19.190;2022-11-27T00:13:58;34.95;;;22.92;;
46040;SDS011;31779;49.124;19.190;2022-11-27T00:16:27;35.85;;;26.25;;
46040;SDS011;31779;49.124;19.190;2022-11-27T00:18:55;35.38;;;23.40;;
46040;SDS011;31779;49.124;19.190;2022-11-27T00:21:25;36.22;;;24.80;;
46040;SDS011;31779;49.124;19.190;2022-11-27T00:23:58;39.78;;;29.75;;
46040;SDS011;31779;49.124;19.190;2022-11-27T00:26:28;47.10;;;34.00;;
46040;SDS011;31779;49.124;19.190;2022-11-27T00:29:03;44.85;;;32.80;;
46040;SDS011;31779;49.124;19.190;2022-11-27T00:31:33;41.28;;;29.33;;
46040;SDS011;31779;49.124;19.190;2022-11-27T00:34:05;33.80;;;24.38;;
46040;SDS011;31779;49.124;19.190;2022-11-27T00:36:34;29.15;;;23.38;;
46040;SDS011;31779;49.124;19.190;2022-11-27T00:39:03;30.67;;;22.05;;
46040;SDS011;31779;49.124;19.190;2022-11-27T00:41:31;33.90;;;23.40;;
46040;SDS011;31779;49.124;19.190;2022-11-27T00:43:59;32.60;;;22.67;;
46040;SDS011;31779;49.124;19.190;2022-11-27T00:46:28;24.92;;;18.17;;
46040;SDS011;31779;49.124;19.190;2022-11-27T00:48:57;29.48;;;23.30;;
46040;SDS011;31779;49.124;19.190;2022-11-27T00:51:26;25.83;;;16.75;;
46040;SDS011;31779;49.124;19.190;2022-11-27T00:53:55;24.88;;;16.08;;
46040;SDS011;31779;49.124;19.190;2022-11-27T00:56:27;22.55;;;15.25;;
46040;SDS011;31779;49.124;19.190;2022-11-27T00:58:56;22.13;;;17.13;;
46040;SDS011;31779;49.124;19.190;2022-11-27T01:01:28;18.98;;;14.98;;
46040;SDS011;31779;49.124;19.190;2022-11-27T01:03:58;17.58;;;15.15;;
46040;SDS011;31779;49.124;19.190;2022-11-27T01:06:28;14.70;;;12.00;;
46040;SDS011;31779;49.124;19.190;2022-11-27T01:08:56;25.70;;;16.70;;
46040;SDS011;31779;49.124;19.190;2022-11-27T01:11:26;18.83;;;15.60;;
46040;SDS011;31779;49.124;19.190;2022-11-27T01:13:56;17.30;;;14.93;;
46040;SDS011;31779;49.124;19.190;2022-11-27T01:16:30;17.33;;;15.48;;
46040;SDS011;31779;49.124;19.190;2022-11-27T01:19:00;17.52;;;14.75;;
46040;SDS011;31779;49.124;19.190;2022-11-27T01:21:29;16.70;;;12.13;;
46040;SDS011;31779;49.124;19.190;2022-11-27T01:23:58;17.60;;;11.70;;
46040;SDS011;31779;49.124;19.190;2022-11-27T01:26:27;14.85;;;12.38;;
46040;SDS011;31779;49.124;19.190;2022-11-27T01:28:56;14.68;;;12.70;;
46040;SDS011;31779;49.124;19.190;2022-11-27T01:31:25;18.02;;;13.57;;
46040;SDS011;31779;49.124;19.190;2022-11-27T01:33:58;17.73;;;13.63;;
46040;SDS011;31779;49.124;19.190;2022-11-27T01:36:27;18.65;;;14.45;;
46040;SDS011;31779;49.124;19.190;2022-11-27T01:38:57;17.25;;;12.98;;
46040;SDS011;31779;49.124;19.190;2022-11-27T01:41:26;19.70;;;14.98;;
46040;SDS011;31779;49.124;19.190;2022-11-27T01:44:00;17.98;;;15.20;;
46040;SDS011;31779;49.124;19.190;2022-11-27T01:49:28;28.10;;;18.45;;
46040;SDS011;31779;49.124;19.190;2022-11-27T01:54:40;20.48;;;15.52;;
46040;SDS011;31779;49.124;19.190;2022-11-27T01:57:15;17.63;;;14.35;;
46040;SDS011;31779;49.124;19.190;2022-11-27T01:59:47;18.90;;;14.68;;
46040;SDS011;31779;49.124;19.190;2022-11-27T02:02:16;14.50;;;12.43;;
46040;SDS011;31779;49.124;19.190;2022-11-27T02:04:44;15.57;;;12.45;;
46040;SDS011;31779;49.124;19.190;2022-11-27T02:07:12;13.18;;;10.95;;
46040;SDS011;31779;49.124;19.190;2022-11-27T02:09:40;12.55;;;10.38;;
46040;SDS011;31779;49.124;19.190;2022-11-27T02:14:56;11.93;;;10.23;;
46040;SDS011;31779;49.124;19.190;2022-11-27T02:23:12;10.38;;;9.32;;
46040;SDS011;31779;49.124;19.190;2022-11-27T02:29:25;11.05;;;9.88;;
46040;SDS011;31779;49.124;19.190;2022-11-27T02:32:09;13.23;;;11.40;;
46040;SDS011;31779;49.124;19.190;2022-11-27T02:37:48;14.68;;;10.23;;
46040;SDS011;31779;49.124;19.190;2022-11-27T02:45:32;13.65;;;11.80;;
46040;SDS011;31779;49.124;19.190;2022-11-27T02:48:03;12.60;;;11.32;;
46040;SDS011;31779;49.124;19.190;2022-11-27T02:50:32;14.45;;;10.93;;
46040;SDS011;31779;49.124;19.190;2022-11-27T02:53:04;20.17;;;13.27;;
46040;SDS011;31779;49.124;19.190;2022-11-27T02:55:37;13.35;;;11.95;;
46040;SDS011;31779;49.124;19.190;2022-11-27T02:58:08;18.00;;;15.50;;
46040;SDS011;31779;49.124;19.190;2022-11-27T03:00:58;18.58;;;14.20;;
46040;SDS011;31779;49.124;19.190;2022-11-27T03:03:28;16.80;;;13.15;;
46040;SDS011;31779;49.124;19.190;2022-11-27T03:06:10;23.90;;;15.02;;
46040;SDS011;31779;49.124;19.190;2022-11-27T03:08:41;16.70;;;14.73;;
46040;SDS011;31779;49.124;19.190;2022-11-27T03:11:33;16.85;;;13.80;;
46040;SDS011;31779;49.124;19.190;2022-11-27T03:14:03;16.13;;;13.85;;
46040;SDS011;31779;49.124;19.190;2022-11-27T03:19:23;19.38;;;14.25;;
46040;SDS011;31779;49.124;19.190;2022-11-27T03:24:26;16.05;;;13.35;;
46040;SDS011;31779;49.124;19.190;2022-11-27T03:26:58;17.70;;;14.13;;
46040;SDS011;31779;49.124;19.190;2022-11-27T03:29:32;16.85;;;12.50;;
46040;SDS011;31779;49.124;19.190;2022-11-27T03:34:35;16.52;;;13.65;;
46040;SDS011;31779;49.124;19.190;2022-11-27T03:37:03;16.17;;;12.25;;
46040;SDS011;31779;49.124;19.190;2022-11-27T03:39:31;14.68;;;12.13;;
46040;SDS011;31779;49.124;19.190;2022-11-27T03:50:39;34.00;;;20.05;;
46040;SDS011;31779;49.124;19.190;2022-11-27T03:53:18;18.20;;;13.77;;
46040;SDS011;31779;49.124;19.190;2022-11-27T03:56:10;17.20;;;14.20;;
46040;SDS011;31779;49.124;19.190;2022-11-27T03:58:46;23.23;;;13.93;;
46040;SDS011;31779;49.124;19.190;2022-11-27T04:01:30;16.05;;;12.40;;
46040;SDS011;31779;49.124;19.190;2022-11-27T04:03:58;37.03;;;29.08;;
46040;SDS011;31779;49.124;19.190;2022-11-27T04:06:26;29.40;;;22.70;;
46040;SDS011;31779;49.124;19.190;2022-11-27T04:08:54;29.13;;;22.05;;
46040;SDS011;31779;49.124;19.190;2022-11-27T04:11:21;21.98;;;17.23;;
46040;SDS011;31779;49.124;19.190;2022-11-27T04:13:49;25.05;;;19.63;;
46040;SDS011;31779;49.124;19.190;2022-11-27T04:16:25;27.65;;;19.40;;
46040;SDS011;31779;49.124;19.190;2022-11-27T04:18:53;26.83;;;20.85;;
46040;SDS011;31779;49.124;19.190;2022-11-27T04:21:21;27.02;;;22.50;;
46040;SDS011;31779;49.124;19.190;2022-11-27T04:23:49;33.90;;;24.20;;
46040;SDS011;31779;49.124;19.190;2022-11-27T04:26:17;30.13;;;21.60;;
46040;SDS011;31779;49.124;19.190;2022-11-27T04:28:44;27.30;;;20.95;;
46040;SDS011;31779;49.124;19.190;2022-11-27T04:31:12;22.20;;;18.00;;
46040;SDS011;31779;49.124;19.190;2022-11-27T04:33:40;20.10;;;15.88;;
46040;SDS011;31779;49.124;19.190;2022-11-27T04:36:08;17.60;;;15.35;;
46040;SDS011;31779;49.124;19.190;2022-11-27T04:38:36;18.27;;;14.95;;
46040;SDS011;31779;49.124;19.190;2022-11-27T04:41:04;16.52;;;12.93;;
46040;SDS011;31779;49.124;19.190;2022-11-27T04:43:31;17.63;;;14.35;;
46040;SDS011;31779;49.124;19.190;2022-11-27T04:45:59;16.75;;;14.52;;
46040;SDS011;31779;49.124;19.190;2022-11-27T04:48:27;15.55;;;13.50;;
46040;SDS011;31779;49.124;19.190;2022-11-27T04:50:56;18.48;;;13.90;;
46040;SDS011;31779;49.124;19.190;2022-11-27T04:53:24;19.25;;;14.88;;
46040;SDS011;31779;49.124;19.190;2022-11-27T04:55:51;18.30;;;14.32;;
46040;SDS011;31779;49.124;19.190;2022-11-27T04:58:19;21.52;;;14.38;;
46040;SDS011;31779;49.124;19.190;2022-11-27T05:00:47;18.02;;;14.57;;
46040;SDS011;31779;49.124;19.190;2022-11-27T05:03:15;17.08;;;14.05;;
46040;SDS011;31779;49.124;19.190;2022-11-27T05:05:43;19.05;;;14.77;;
46040;SDS011;31779;49.124;19.190;2022-11-27T05:08:18;14.88;;;12.93;;
46040;SDS011;31779;49.124;19.190;2022-11-27T05:11:02;13.57;;;12.15;;
46040;SDS011;31779;49.124;19.190;2022-11-27T05:13:41;13.10;;;11.65;;
46040;SDS011;31779;49.124;19.190;2022-11-27T05:16:09;16.63;;;14.25;;
46040;SDS011;31779;49.124;19.190;2022-11-27T05:18:37;14.55;;;12.45;;
46040;SDS011;31779;49.124;19.190;2022-11-27T05:21:06;16.60;;;13.25;;
46040;SDS011;31779;49.124;19.190;2022-11-27T05:23:34;17.65;;;13.93;;
46040;SDS011;31779;49.124;19.190;2022-11-27T05:26:02;14.52;;;12.77;;
46040;SDS011;31779;49.124;19.190;2022-11-27T05:28:30;16.90;;;13.02;;
46040;SDS011;31779;49.124;19.190;2022-11-27T05:30:58;15.75;;;12.50;;
46040;SDS011;31779;49.124;19.190;2022-11-27T05:33:26;14.25;;;11.57;;
46040;SDS011;31779;49.124;19.190;2022-11-27T05:35:54;18.23;;;13.85;;
46040;SDS011;31779;49.124;19.190;2022-11-27T05:38:22;12.93;;;11.15;;
46040;SDS011;31779;49.124;19.190;2022-11-27T05:40:49;14.77;;;13.27;;
46040;SDS011;31779;49.124;19.190;2022-11-27T05:43:17;12.15;;;10.90;;
46040;SDS011;31779;49.124;19.190;2022-11-27T05:45:45;13.75;;;10.27;;
46040;SDS011;31779;49.124;19.190;2022-11-27T05:48:12;11.13;;;9.98;;
46040;SDS011;31779;49.124;19.190;2022-11-27T05:50:40;12.68;;;10.00;;
46040;SDS011;31779;49.124;19.190;2022-11-27T05:53:08;11.70;;;9.88;;
46040;SDS011;31779;49.124;19.190;2022-11-27T05:55:36;12.15;;;10.88;;
46040;SDS011;31779;49.124;19.190;2022-11-27T05:58:04;15.07;;;12.82;;
46040;SDS011;31779;49.124;19.190;2022-11-27T06:00:32;19.35;;;14.65;;
46040;SDS011;31779;49.124;19.190;2022-11-27T06:02:59;18.35;;;14.07;;
46040;SDS011;31779;49.124;19.190;2022-11-27T06:05:28;18.10;;;14.35;;
46040;SDS011;31779;49.124;19.190;2022-11-27T06:07:55;15.65;;;13.20;;
46040;SDS011;31779;49.124;19.190;2022-11-27T06:10:23;17.00;;;13.68;;
46040;SDS011;31779;49.124;19.190;2022-11-27T06:12:51;16.27;;;14.13;;
46040;SDS011;31779;49.124;19.190;2022-11-27T06:15:19;16.50;;;12.90;;
46040;SDS011;31779;49.124;19.190;2022-11-27T06:17:47;14.18;;;12.52;;
46040;SDS011;31779;49.124;19.190;2022-11-27T06:20:16;14.77;;;12.88;;
46040;SDS011;31779;49.124;19.190;2022-11-27T06:22:43;13.40;;;11.73;;
46040;SDS011;31779;49.124;19.190;2022-11-27T06:25:11;13.05;;;11.65;;
46040;SDS011;31779;49.124;19.190;2022-11-27T06:27:39;15.02;;;12.65;;
46040;SDS011;31779;49.124;19.190;2022-11-27T06:30:07;13.80;;;12.15;;
46040;SDS011;31779;49.124;19.190;2022-11-27T06:32:37;14.20;;;11.18;;
46040;SDS011;31779;49.124;19.190;2022-11-27T06:35:05;13.88;;;11.50;;
46040;SDS011;31779;49.124;19.190;2022-11-27T06:37:33;18.60;;;11.57;;
46040;SDS011;31779;49.124;19.190;2022-11-27T06:40:02;12.88;;;11.55;;
46040;SDS011;31779;49.124;19.190;2022-11-27T06:42:30;15.18;;;12.00;;
46040;SDS011;31779;49.124;19.190;2022-11-27T06:44:58;16.17;;;13.35;;
46040;SDS011;31779;49.124;19.190;2022-11-27T06:47:26;16.33;;;12.93;;
46040;SDS011;31779;49.124;19.190;2022-11-27T06:49:54;15.85;;;13.73;;
46040;SDS011;31779;49.124;19.190;2022-11-27T06:52:23;14.45;;;12.80;;
46040;SDS011;31779;49.124;19.190;2022-11-27T06:54:50;17.33;;;13.88;;
46040;SDS011;31779;49.124;19.190;2022-11-27T06:57:18;16.77;;;13.77;;
46040;SDS011;31779;49.124;19.190;2022-11-27T06:59:46;19.73;;;15.10;;
46040;SDS011;31779;49.124;19.190;2022-11-27T07:02:13;19.98;;;16.13;;
46040;SDS011;31779;49.124;19.190;2022-11-27T07:04:42;18.35;;;13.65;;
46040;SDS011;31779;49.124;19.190;2022-11-27T07:07:11;13.85;;;11.43;;
46040;SDS011;31779;49.124;19.190;2022-11-27T07:09:39;17.67;;;13.27;;
46040;SDS011;31779;49.124;19.190;2022-11-27T07:12:07;18.50;;;16.50;;
46040;SDS011;31779;49.124;19.190;2022-11-27T07:14:36;20.67;;;16.27;;
46040;SDS011;31779;49.124;19.190;2022-11-27T07:17:04;23.92;;;17.92;;
46040;SDS011;31779;49.124;19.190;2022-11-27T07:19:32;27.17;;;20.05;;
46040;SDS011;31779;49.124;19.190;2022-11-27T07:22:00;20.50;;;18.23;;
46040;SDS011;31779;49.124;19.190;2022-11-27T07:24:28;22.70;;;17.63;;
46040;SDS011;31779;49.124;19.190;2022-11-27T07:26:56;26.75;;;18.00;;
46040;SDS011;31779;49.124;19.190;2022-11-27T07:29:24;24.08;;;20.98;;
46040;SDS011;31779;49.124;19.190;2022-11-27T07:31:52;25.75;;;21.50;;
46040;SDS011;31779;49.124;19.190;2022-11-27T07:34:20;26.70;;;20.42;;
46040;SDS011;31779;49.124;19.190;2022-11-27T07:36:47;24.67;;;18.73;;
46040;SDS011;31779;49.124;19.190;2022-11-27T07:39:16;27.98;;;21.65;;
46040;SDS011;31779;49.124;19.190;2022-11-27T07:42:03;40.15;;;29.92;;
46040;SDS011;31779;49.124;19.190;2022-11-27T07:44:54;49.30;;;36.90;;
46040;SDS011;31779;49.124;19.190;2022-11-27T07:47:22;41.60;;;32.28;;
46040;SDS011;31779;49.124;19.190;2022-11-27T07:49:50;40.92;;;32.85;;
46040;SDS011;31779;49.124;19.190;2022-11-27T07:52:21;31.00;;;22.52;;
46040;SDS011;31779;49.124;19.190;2022-11-27T07:54:49;30.15;;;24.98;;
46040;SDS011;31779;49.124;19.190;2022-11-27T07:57:16;30.83;;;23.48;;
46040;SDS011;31779;49.124;19.190;2022-11-27T07:59:44;30.58;;;25.40;;
46040;SDS011;31779;49.124;19.190;2022-11-27T08:02:13;26.35;;;22.83;;
46040;SDS011;31779;49.124;19.190;2022-11-27T08:04:41;31.20;;;25.27;;
46040;SDS011;31779;49.124;19.190;2022-11-27T08:07:10;30.63;;;25.02;;
46040;SDS011;31779;49.124;19.190;2022-11-27T08:09:38;34.00;;;24.35;;
46040;SDS011;31779;49.124;19.190;2022-11-27T08:12:06;27.35;;;23.58;;
46040;SDS011;31779;49.124;19.190;2022-11-27T08:14:34;30.35;;;25.00;;
46040;SDS011;31779;49.124;19.190;2022-11-27T08:17:03;29.45;;;24.15;;
46040;SDS011;31779;49.124;19.190;2022-11-27T08:19:30;64.60;;;49.08;;
46040;SDS011;31779;49.124;19.190;2022-11-27T08:21:59;90.25;;;67.97;;
46040;SDS011;31779;49.124;19.190;2022-11-27T08:24:28;71.82;;;56.60;;
46040;SDS011;31779;49.124;19.190;2022-11-27T08:26:57;64.20;;;47.80;;
46040;SDS011;31779;49.124;19.190;2022-11-27T08:29:26;56.13;;;40.42;;
46040;SDS011;31779;49.124;19.190;2022-11-27T08:31:59;55.83;;;43.97;;
46040;SDS011;31779;49.124;19.190;2022-11-27T08:34:28;55.15;;;45.03;;
46040;SDS011;31779;49.124;19.190;2022-11-27T08:36:56;55.60;;;45.38;;
46040;SDS011;31779;49.124;19.190;2022-11-27T08:39:25;61.83;;;51.83;;
46040;SDS011;31779;49.124;19.190;2022-11-27T08:41:53;45.22;;;37.85;;
46040;SDS011;31779;49.124;19.190;2022-11-27T08:44:22;52.53;;;43.95;;
46040;SDS011;31779;49.124;19.190;2022-11-27T08:46:50;51.17;;;42.67;;
46040;SDS011;31779;49.124;19.190;2022-11-27T08:49:19;46.33;;;39.35;;
46040;SDS011;31779;49.124;19.190;2022-11-27T08:51:47;50.88;;;38.63;;
46040;SDS011;31779;49.124;19.190;2022-11-27T08:54:17;57.45;;;40.65;;
46040;SDS011;31779;49.124;19.190;2022-11-27T08:56:45;107.28;;;76.38;;
46040;SDS011;31779;49.124;19.190;2022-11-27T08:59:14;46.08;;;34.90;;
46040;SDS011;31779;49.124;19.190;2022-11-27T09:01:44;38.65;;;32.28;;
46040;SDS011;31779;49.124;19.190;2022-11-27T09:04:12;54.70;;;45.50;;
46040;SDS011;31779;49.124;19.190;2022-11-27T09:06:40;46.92;;;36.63;;
46040;SDS011;31779;49.124;19.190;2022-11-27T09:09:09;35.17;;;25.13;;
46040;SDS011;31779;49.124;19.190;2022-11-27T09:11:38;18.52;;;16.40;;
46040;SDS011;31779;49.124;19.190;2022-11-27T09:14:07;73.30;;;50.67;;
46040;SDS011;31779;49.124;19.190;2022-11-27T09:16:35;40.92;;;28.63;;
46040;SDS011;31779;49.124;19.190;2022-11-27T09:19:03;14.57;;;12.95;;
46040;SDS011;31779;49.124;19.190;2022-11-27T09:21:31;20.30;;;16.92;;
46040;SDS011;31779;49.124;19.190;2022-11-27T09:24:00;23.33;;;19.73;;
46040;SDS011;31779;49.124;19.190;2022-11-27T09:26:29;42.33;;;28.67;;
46040;SDS011;31779;49.124;19.190;2022-11-27T09:28:58;29.30;;;21.77;;
46040;SDS011;31779;49.124;19.190;2022-11-27T09:31:26;12.15;;;10.70;;
46040;SDS011;31779;49.124;19.190;2022-11-27T09:33:57;13.73;;;12.30;;
46040;SDS011;31779;49.124;19.190;2022-11-27T09:36:25;18.65;;;16.38;;
46040;SDS011;31779;49.124;19.190;2022-11-27T09:38:53;14.57;;;13.18;;
46040;SDS011;31779;49.124;19.190;2022-11-27T09:41:33;23.08;;;17.75;;
46040;SDS011;31779;49.124;19.190;2022-11-27T09:44:15;20.67;;;16.27;;
46040;SDS011;31779;49.124;19.190;2022-11-27T09:50:16;37.08;;;25.33;;
46040;SDS011;31779;49.124;19.190;2022-11-27T09:58:10;27.17;;;22.55;;
46040;SDS011;31779;49.124;19.190;2022-11-27T10:00:45;20.00;;;17.15;;
46040;SDS011;31779;49.124;19.190;2022-11-27T10:03:16;21.70;;;19.38;;
46040;SDS011;31779;49.124;19.190;2022-11-27T10:05:59;20.80;;;18.30;;
46040;SDS011;31779;49.124;19.190;2022-11-27T10:30:31;9.98;;;9.07;;
46040;SDS011;31779;49.124;19.190;2022-11-27T10:33:26;11.80;;;10.73;;
46040;SDS011;31779;49.124;19.190;2022-11-27T10:36:03;12.77;;;11.57;;
46040;SDS011;31779;49.124;19.190;2022-11-27T10:38:37;15.68;;;14.07;;
46040;SDS011;31779;49.124;19.190;2022-11-27T10:44:24;15.48;;;13.88;;
46040;SDS011;31779;49.124;19.190;2022-11-27T10:47:04;24.58;;;21.35;;
46040;SDS011;31779;49.124;19.190;2022-11-27T10:49:41;18.77;;;16.85;;
46040;SDS011;31779;49.124;19.190;2022-11-27T10:52:14;15.32;;;13.75;;
46040;SDS011;31779;49.124;19.190;2022-11-27T10:54:50;16.30;;;14.70;;
46040;SDS011;31779;49.124;19.190;2022-11-27T11:00:24;14.73;;;13.23;;
46040;SDS011;31779;49.124;19.190;2022-11-27T11:02:59;18.70;;;16.92;;
46040;SDS011;31779;49.124;19.190;2022-11-27T11:05:33;22.05;;;19.65;;
46040;SDS011;31779;49.124;19.190;2022-11-27T11:08:23;23.58;;;19.88;;
46040;SDS011;31779;49.124;19.190;2022-11-27T11:11:02;17.13;;;15.13;;
46040;SDS011;31779;49.124;19.190;2022-11-27T11:13:45;19.50;;;17.42;;
46040;SDS011;31779;49.124;19.190;2022-11-27T11:16:22;16.58;;;14.60;;
46040;SDS011;31779;49.124;19.190;2022-11-27T11:19:02;14.95;;;13.40;;
46040;SDS011;31779;49.124;19.190;2022-11-27T11:21:37;19.38;;;16.60;;
46040;SDS011;31779;49.124;19.190;2022-11-27T11:24:31;17.50;;;15.20;;
46040;SDS011;31779;49.124;19.190;2022-11-27T11:29:54;28.20;;;21.70;;
46040;SDS011;31779;49.124;19.190;2022-11-27T11:32:36;22.08;;;17.70;;
46040;SDS011;31779;49.124;19.190;2022-11-27T11:38:14;17.75;;;14.90;;
46040;SDS011;31779;49.124;19.190;2022-11-27T11:40:57;18.40;;;14.75;;
46040;SDS011;31779;49.124;19.190;2022-11-27T11:43:35;21.73;;;17.30;;
46040;SDS011;31779;49.124;19.190;2022-11-27T11:46:12;19.40;;;16.25;;
46040;SDS011;31779;49.124;19.190;2022-11-27T11:48:51;20.27;;;16.27;;
46040;SDS011;31779;49.124;19.190;2022-11-27T11:51:28;38.13;;;27.42;;
46040;SDS011;31779;49.124;19.190;2022-11-27T11:57:06;22.58;;;17.25;;
46040;SDS011;31779;49.124;19.190;2022-11-27T12:00:18;26.45;;;19.77;;
46040;SDS011;31779;49.124;19.190;2022-11-27T12:11:18;31.30;;;24.58;;
46040;SDS011;31779;49.124;19.190;2022-11-27T12:25:36;27.45;;;19.27;;
46040;SDS011;31779;49.124;19.190;2022-11-27T12:28:30;32.28;;;23.58;;
46040;SDS011;31779;49.124;19.190;2022-11-27T12:31:24;65.63;;;50.75;;
46040;SDS011;31779;49.124;19.190;2022-11-27T12:43:43;26.98;;;19.45;;
46040;SDS011;31779;49.124;19.190;2022-11-27T12:46:21;26.55;;;19.30;;
46040;SDS011;31779;49.124;19.190;2022-11-27T12:49:13;27.75;;;21.27;;
46040;SDS011;31779;49.124;19.190;2022-11-27T12:54:42;30.80;;;24.67;;
46040;SDS011;31779;49.124;19.190;2022-11-27T12:58:09;30.27;;;24.08;;
46040;SDS011;31779;49.124;19.190;2022-11-27T13:00:28;25.38;;;19.85;;
46040;SDS011;31779;49.124;19.190;2022-11-27T13:05:46;26.50;;;21.23;;
46040;SDS011;31779;49.124;19.190;2022-11-27T13:08:31;24.45;;;21.05;;
46040;SDS011;31779;49.124;19.190;2022-11-27T13:11:05;23.08;;;18.95;;
46040;SDS011;31779;49.124;19.190;2022-11-27T13:13:43;23.05;;;18.92;;
46040;SDS011;31779;49.124;19.190;2022-11-27T13:16:30;38.28;;;27.88;;
46040;SDS011;31779;49.124;19.190;2022-11-27T13:19:29;27.20;;;19.92;;
46040;SDS011;31779;49.124;19.190;2022-11-27T13:22:10;32.00;;;24.50;;
46040;SDS011;31779;49.124;19.190;2022-11-27T13:24:49;26.80;;;19.92;;
46040;SDS011;31779;49.124;19.190;2022-11-27T13:27:22;24.40;;;17.13;;
46040;SDS011;31779;49.124;19.190;2022-11-27T13:30:05;28.02;;;21.92;;
46040;SDS011;31779;49.124;19.190;2022-11-27T13:32:42;31.13;;;25.70;;
46040;SDS011;31779;49.124;19.190;2022-11-27T13:38:25;68.03;;;38.45;;
46040;SDS011;31779;49.124;19.190;2022-11-27T13:40:56;32.47;;;22.50;;
46040;SDS011;31779;49.124;19.190;2022-11-27T13:43:43;30.80;;;25.65;;
46040;SDS011;31779;49.124;19.190;2022-11-27T13:46:20;54.67;;;36.05;;
46040;SDS011;31779;49.124;19.190;2022-11-27T13:49:00;56.70;;;42.17;;
46040;SDS011;31779;49.124;19.190;2022-11-27T13:51:35;110.20;;;78.05;;
46040;SDS011;31779;49.124;19.190;2022-11-27T13:56:34;22.30;;;17.77;;
46040;SDS011;31779;49.124;19.190;2022-11-27T14:02:06;25.65;;;19.75;;
46040;SDS011;31779;49.124;19.190;2022-11-27T14:04:46;21.10;;;17.10;;
46040;SDS011;31779;49.124;19.190;2022-11-27T14:07:21;21.20;;;15.77;;
46040;SDS011;31779;49.124;19.190;2022-11-27T14:10:05;35.97;;;27.67;;
46040;SDS011;31779;49.124;19.190;2022-11-27T14:12:40;30.77;;;22.67;;
46040;SDS011;31779;49.124;19.190;2022-11-27T14:15:19;28.80;;;16.92;;
46040;SDS011;31779;49.124;19.190;2022-11-27T14:17:51;18.65;;;15.48;;
46040;SDS011;31779;49.124;19.190;2022-11-27T14:23:01;21.25;;;16.85;;
46040;SDS011;31779;49.124;19.190;2022-11-27T14:25:39;19.25;;;17.08;;
46040;SDS011;31779;49.124;19.190;2022-11-27T14:28:15;27.15;;;20.00;;
46040;SDS011;31779;49.124;19.190;2022-11-27T14:33:19;19.02;;;15.57;;
46040;SDS011;31779;49.124;19.190;2022-11-27T14:35:51;22.40;;;16.15;;
46040;SDS011;31779;49.124;19.190;2022-11-27T14:38:21;19.25;;;14.10;;
46040;SDS011;31779;49.124;19.190;2022-11-27T14:40:52;15.27;;;13.25;;
46040;SDS011;31779;49.124;19.190;2022-11-27T14:43:22;19.00;;;15.25;;
46040;SDS011;31779;49.124;19.190;2022-11-27T14:45:53;18.27;;;14.50;;
46040;SDS011;31779;49.124;19.190;2022-11-27T14:48:25;17.25;;;12.80;;
46040;SDS011;31779;49.124;19.190;2022-11-27T14:51:18;15.07;;;13.32;;
46040;SDS011;31779;49.124;19.190;2022-11-27T14:53:49;14.60;;;12.82;;
46040;SDS011;31779;49.124;19.190;2022-11-27T14:56:34;15.77;;;12.93;;
46040;SDS011;31779;49.124;19.190;2022-11-27T14:59:09;19.00;;;15.23;;
46040;SDS011;31779;49.124;19.190;2022-11-27T15:02:24;16.83;;;13.75;;
46040;SDS011;31779;49.124;19.190;2022-11-27T15:04:48;15.25;;;12.68;;
46040;SDS011;31779;49.124;19.190;2022-11-27T15:07:21;19.40;;;15.18;;
46040;SDS011;31779;49.124;19.190;2022-11-27T15:09:54;18.25;;;14.18;;
46040;SDS011;31779;49.124;19.190;2022-11-27T15:17:30;16.00;;;11.13;;
46040;SDS011;31779;49.124;19.190;2022-11-27T15:20:03;15.90;;;14.20;;
46040;SDS011;31779;49.124;19.190;2022-11-27T15:22:50;23.40;;;16.23;;
46040;SDS011;31779;49.124;19.190;2022-11-27T15:28:49;19.15;;;14.30;;
46040;SDS011;31779;49.124;19.190;2022-11-27T15:34:02;16.33;;;14.50;;
46040;SDS011;31779;49.124;19.190;2022-11-27T15:42:28;20.23;;;15.02;;
46040;SDS011;31779;49.124;19.190;2022-11-27T15:44:56;21.92;;;15.07;;
46040;SDS011;31779;49.124;19.190;2022-11-27T15:47:29;19.63;;;14.57;;
46040;SDS011;31779;49.124;19.190;2022-11-27T15:50:04;23.17;;;15.93;;
46040;SDS011;31779;49.124;19.190;2022-11-27T15:52:35;22.77;;;17.73;;
46040;SDS011;31779;49.124;19.190;2022-11-27T15:55:05;20.75;;;17.77;;
46040;SDS011;31779;49.124;19.190;2022-11-27T15:57:34;20.48;;;15.55;;
46040;SDS011;31779;49.124;19.190;2022-11-27T16:00:04;19.23;;;16.67;;
46040;SDS011;31779;49.124;19.190;2022-11-27T16:02:39;20.58;;;16.92;;
46040;SDS011;31779;49.124;19.190;2022-11-27T16:05:08;22.85;;;16.65;;
46040;SDS011;31779;49.124;19.190;2022-11-27T16:07:37;22.27;;;15.32;;
46040;SDS011;31779;49.124;19.190;2022-11-27T16:10:05;20.42;;;14.65;;
46040;SDS011;31779;49.124;19.190;2022-11-27T16:12:37;19.67;;;14.85;;
46040;SDS011;31779;49.124;19.190;2022-11-27T16:15:06;21.15;;;15.48;;
46040;SDS011;31779;49.124;19.190;2022-11-27T16:17:35;13.95;;;12.02;;
46040;SDS011;31779;49.124;19.190;2022-11-27T16:20:05;21.23;;;14.65;;
46040;SDS011;31779;49.124;19.190;2022-11-27T16:22:34;21.23;;;15.32;;
46040;SDS011;31779;49.124;19.190;2022-11-27T16:25:04;17.98;;;14.50;;
46040;SDS011;31779;49.124;19.190;2022-11-27T16:27:37;18.90;;;13.60;;
46040;SDS011;31779;49.124;19.190;2022-11-27T16:30:07;17.10;;;13.40;;
46040;SDS011;31779;49.124;19.190;2022-11-27T16:32:42;17.38;;;15.10;;
46040;SDS011;31779;49.124;19.190;2022-11-27T16:35:12;18.95;;;14.57;;
46040;SDS011;31779;49.124;19.190;2022-11-27T16:37:54;15.75;;;12.40;;
46040;SDS011;31779;49.124;19.190;2022-11-27T16:40:24;21.58;;;15.60;;
46040;SDS011;31779;49.124;19.190;2022-11-27T16:42:52;17.83;;;13.48;;
46040;SDS011;31779;49.124;19.190;2022-11-27T16:45:21;19.25;;;14.70;;
46040;SDS011;31779;49.124;19.190;2022-11-27T16:47:49;17.55;;;12.25;;
46040;SDS011;31779;49.124;19.190;2022-11-27T16:50:18;14.30;;;11.40;;
46040;SDS011;31779;49.124;19.190;2022-11-27T16:52:47;15.18;;;11.75;;
46040;SDS011;31779;49.124;19.190;2022-11-27T16:55:22;13.15;;;10.85;;
46040;SDS011;31779;49.124;19.190;2022-11-27T16:57:52;13.13;;;11.25;;
46040;SDS011;31779;49.124;19.190;2022-11-27T17:00:22;15.98;;;11.60;;
46040;SDS011;31779;49.124;19.190;2022-11-27T17:02:51;17.38;;;15.52;;
46040;SDS011;31779;49.124;19.190;2022-11-27T17:05:20;27.85;;;20.75;;
46040;SDS011;31779;49.124;19.190;2022-11-27T17:07:48;20.17;;;15.75;;
46040;SDS011;31779;49.124;19.190;2022-11-27T17:10:19;31.10;;;17.55;;
46040;SDS011;31779;49.124;19.190;2022-11-27T17:12:50;30.35;;;19.58;;